createdAt,value
2022-08-21T00:00:18.515Z,16.79
2022-08-21T00:02:45.790Z,16.66
2022-08-21T00:05:13.085Z,16.86
2022-08-21T00:07:40.383Z,16.95
2022-08-21T00:10:07.651Z,16.75
2022-08-21T00:12:34.926Z,17.26
2022-08-21T00:15:02.224Z,17.11
2022-08-21T00:17:29.537Z,16.98
2022-08-21T00:19:56.803Z,17.05
2022-08-21T00:22:24.063Z,17.23
2022-08-21T00:24:51.351Z,17.39
2022-08-21T00:27:18.646Z,17.71
2022-08-21T00:29:45.923Z,17.74
2022-08-21T00:32:13.310Z,17.94
2022-08-21T00:34:40.699Z,17.86
2022-08-21T00:37:07.975Z,17.75
2022-08-21T00:39:35.350Z,17.61
2022-08-21T00:42:02.614Z,17.69
2022-08-21T00:44:29.883Z,17.61
2022-08-21T00:46:57.165Z,17.69
2022-08-21T00:49:24.470Z,17.68
2022-08-21T00:51:52.886Z,16.84
2022-08-21T00:54:20.161Z,16.43
2022-08-21T00:56:48.651Z,16.32
2022-08-21T00:59:17.063Z,16.10
2022-08-21T01:01:44.371Z,15.99
2022-08-21T01:04:11.633Z,15.87
2022-08-21T01:06:38.930Z,15.75
2022-08-21T01:09:06.210Z,15.60
2022-08-21T01:11:33.492Z,15.60
2022-08-21T01:14:00.769Z,15.49
2022-08-21T01:16:28.076Z,15.47
2022-08-21T01:18:55.375Z,15.56
2022-08-21T01:21:22.661Z,15.70
2022-08-21T01:23:55.433Z,15.77
2022-08-21T01:26:22.721Z,15.85
2022-08-21T01:28:56.361Z,15.89
2022-08-21T01:31:25.441Z,15.77
2022-08-21T01:33:53.690Z,15.82
2022-08-21T01:36:20.985Z,15.74
2022-08-21T01:38:48.258Z,15.74
2022-08-21T01:41:15.550Z,15.81
2022-08-21T01:43:42.849Z,15.80
2022-08-21T01:46:10.129Z,15.78
2022-08-21T01:48:37.399Z,15.85
2022-08-21T01:51:04.708Z,16.01
2022-08-21T01:53:33.079Z,15.96
2022-08-21T01:56:00.939Z,15.92
2022-08-21T01:58:28.320Z,16.20
2022-08-21T02:00:55.644Z,16.25
2022-08-21T02:03:35.225Z,16.28
2022-08-21T02:06:03.289Z,16.39
2022-08-21T02:08:30.581Z,16.39
2022-08-21T02:10:57.863Z,16.27
2022-08-21T02:13:25.148Z,16.15
2022-08-21T02:15:52.407Z,15.99
2022-08-21T02:18:19.681Z,16.00
2022-08-21T02:20:46.976Z,16.05
2022-08-21T02:23:14.278Z,15.92
2022-08-21T02:25:41.550Z,15.87
2022-08-21T02:28:08.815Z,15.92
2022-08-21T02:30:36.103Z,15.98
2022-08-21T02:33:03.367Z,16.01
2022-08-21T02:35:30.627Z,15.82
2022-08-21T02:37:57.934Z,15.85
2022-08-21T02:40:25.208Z,15.85
2022-08-21T02:42:52.525Z,15.79
2022-08-21T02:45:19.818Z,15.65
2022-08-21T02:47:47.098Z,15.63
2022-08-21T02:50:14.379Z,15.65
2022-08-21T02:52:41.674Z,15.89
2022-08-21T02:55:08.947Z,15.81
2022-08-21T02:57:36.258Z,16.08
2022-08-21T03:00:03.567Z,16.07
2022-08-21T03:02:30.851Z,16.26
2022-08-21T03:04:58.145Z,16.56
2022-08-21T03:07:25.426Z,16.58
2022-08-21T03:09:55.812Z,16.46
2022-08-21T03:12:25.307Z,16.48
2022-08-21T03:14:57.103Z,16.54
2022-08-21T03:17:29.321Z,16.65
2022-08-21T03:19:57.474Z,16.51
2022-08-21T03:22:24.881Z,16.45
2022-08-21T03:24:54.399Z,16.42
2022-08-21T03:27:21.668Z,16.08
2022-08-21T03:29:50.643Z,15.78
2022-08-21T03:32:17.939Z,15.74
2022-08-21T03:34:45.223Z,15.67
2022-08-21T03:37:12.485Z,15.62
2022-08-21T03:39:39.813Z,15.45
2022-08-21T03:42:07.110Z,15.27
2022-08-21T03:44:34.394Z,15.41
2022-08-21T03:47:01.685Z,15.42
2022-08-21T03:49:29.908Z,15.26
2022-08-21T03:51:59.886Z,15.48
2022-08-21T03:54:28.863Z,15.60
2022-08-21T03:56:56.243Z,15.49
2022-08-21T03:59:23.537Z,15.61
2022-08-21T04:01:50.893Z,15.77
2022-08-21T04:04:18.662Z,15.73
2022-08-21T04:06:45.951Z,16.06
2022-08-21T04:09:13.229Z,16.16
2022-08-21T04:11:40.516Z,16.31
2022-08-21T04:14:27.737Z,16.23
2022-08-21T04:16:55.042Z,15.62
2022-08-21T04:19:22.322Z,15.34
2022-08-21T04:21:49.597Z,15.00
2022-08-21T04:24:21.835Z,14.79
2022-08-21T04:26:49.220Z,14.74
2022-08-21T04:29:16.489Z,14.68
2022-08-21T04:31:45.748Z,14.55
2022-08-21T04:34:13.027Z,14.50
2022-08-21T04:36:40.320Z,14.51
2022-08-21T04:39:07.600Z,14.53
2022-08-21T04:41:37.495Z,14.55
2022-08-21T04:44:04.789Z,14.67
2022-08-21T04:46:32.064Z,14.62
2022-08-21T04:48:59.337Z,14.76
2022-08-21T04:51:26.637Z,15.10
2022-08-21T04:53:54.484Z,15.24
2022-08-21T04:56:21.788Z,15.43
2022-08-21T04:58:49.062Z,15.58
2022-08-21T05:01:16.346Z,15.64
2022-08-21T05:03:43.645Z,15.64
2022-08-21T05:06:11.735Z,15.72
2022-08-21T05:08:39.029Z,16.04
2022-08-21T05:11:06.307Z,16.27
2022-08-21T05:13:33.575Z,16.52
2022-08-21T05:16:02.846Z,16.65
2022-08-21T05:18:30.140Z,16.97
2022-08-21T05:20:57.426Z,17.10
2022-08-21T05:23:24.711Z,17.36
2022-08-21T05:25:51.975Z,17.41
2022-08-21T05:28:19.627Z,17.44
2022-08-21T05:30:47.003Z,17.53
2022-08-21T05:33:14.303Z,17.78
2022-08-21T05:35:41.568Z,17.88
2022-08-21T05:38:16.834Z,18.01
2022-08-21T05:40:45.774Z,18.38
2022-08-21T05:43:13.234Z,18.61
2022-08-21T05:45:43.086Z,19.15
2022-08-21T05:48:11.205Z,19.58
2022-08-21T05:50:38.487Z,19.78
2022-08-21T05:53:07.548Z,20.11
2022-08-21T05:55:35.167Z,20.32
2022-08-21T05:58:02.443Z,20.62
2022-08-21T06:00:29.802Z,20.81
2022-08-21T06:02:57.254Z,21.01
2022-08-21T06:05:36.844Z,21.22
2022-08-21T06:08:04.887Z,20.98
2022-08-21T06:10:32.265Z,21.23
2022-08-21T06:12:59.795Z,21.60
2022-08-21T06:15:27.187Z,21.88
2022-08-21T06:17:54.466Z,22.02
2022-08-21T06:20:21.767Z,22.18
2022-08-21T06:22:49.038Z,22.02
2022-08-21T06:25:16.304Z,21.93
2022-08-21T06:27:43.587Z,20.86
2022-08-21T06:30:12.896Z,19.97
2022-08-21T06:32:40.160Z,18.82
2022-08-21T06:35:07.425Z,19.46
2022-08-21T06:37:34.816Z,19.57
2022-08-21T06:40:04.326Z,19.81
2022-08-21T06:42:31.641Z,19.35
2022-08-21T06:44:59.026Z,18.69
2022-08-21T06:47:26.295Z,18.68
2022-08-21T06:49:53.582Z,18.75
2022-08-21T06:52:20.888Z,18.03
2022-08-21T06:54:48.179Z,18.60
2022-08-21T06:57:15.461Z,18.67
2022-08-21T06:59:42.757Z,18.69
2022-08-21T07:02:10.019Z,18.38
2022-08-21T07:04:37.316Z,18.74
2022-08-21T07:07:04.629Z,18.89
2022-08-21T07:09:31.898Z,19.29
2022-08-21T07:11:59.189Z,19.64
2022-08-21T07:14:26.469Z,19.26
2022-08-21T07:16:53.740Z,19.30
2022-08-21T07:19:21.051Z,18.80
2022-08-21T07:21:48.331Z,18.55
2022-08-21T07:24:15.626Z,18.67
2022-08-21T07:26:42.899Z,18.28
2022-08-21T07:29:10.191Z,18.85
2022-08-21T07:31:37.471Z,19.53
2022-08-21T07:34:04.799Z,18.97
2022-08-21T07:36:32.235Z,18.85
2022-08-21T07:39:00.663Z,19.51
2022-08-21T07:41:27.953Z,19.25
2022-08-21T07:43:55.225Z,19.12
2022-08-21T07:46:22.501Z,18.96
2022-08-21T07:48:49.810Z,18.69
2022-08-21T07:51:17.101Z,19.25
2022-08-21T07:53:44.367Z,19.10
2022-08-21T07:56:11.670Z,18.64
2022-08-21T07:58:38.931Z,19.09
2022-08-21T08:01:06.291Z,18.88
2022-08-21T08:03:35.361Z,18.45
2022-08-21T08:06:02.675Z,18.87
2022-08-21T08:08:29.968Z,19.01
2022-08-21T08:10:57.271Z,19.68
2022-08-21T08:13:24.569Z,19.81
2022-08-21T08:15:51.849Z,19.91
2022-08-21T08:18:19.143Z,19.52
2022-08-21T08:20:46.409Z,19.48
2022-08-21T08:23:13.681Z,19.16
2022-08-21T08:25:41.060Z,19.76
2022-08-21T08:28:17.154Z,20.32
2022-08-21T08:30:45.118Z,20.68
2022-08-21T08:33:12.403Z,20.55
2022-08-21T08:35:39.671Z,20.68
2022-08-21T08:38:06.967Z,20.51
2022-08-21T08:40:34.293Z,20.80
2022-08-21T08:43:01.766Z,20.48
2022-08-21T08:45:29.258Z,20.49
2022-08-21T08:47:56.549Z,20.09
2022-08-21T08:50:23.825Z,20.30
2022-08-21T08:52:51.189Z,20.70
2022-08-21T08:55:18.511Z,21.01
2022-08-21T08:57:45.885Z,20.53
2022-08-21T09:00:17.172Z,20.94
2022-08-21T09:02:44.565Z,20.85
2022-08-21T09:05:11.854Z,20.72
2022-08-21T09:07:39.172Z,21.11
2022-08-21T09:10:06.443Z,20.94
2022-08-21T09:12:33.753Z,21.28
2022-08-21T09:15:01.055Z,21.59
2022-08-21T09:17:28.359Z,21.90
2022-08-21T09:19:55.654Z,21.56
2022-08-21T09:22:22.928Z,20.62
2022-08-21T09:24:52.100Z,20.75
2022-08-21T09:27:19.492Z,20.70
2022-08-21T09:29:46.759Z,20.98
2022-08-21T09:32:18.427Z,20.54
2022-08-21T09:34:45.995Z,20.89
2022-08-21T09:37:13.287Z,21.17
2022-08-21T09:39:42.629Z,20.86
2022-08-21T09:42:12.918Z,20.66
2022-08-21T09:44:40.197Z,21.28
2022-08-21T09:47:07.491Z,21.64
2022-08-21T09:49:34.785Z,22.13
2022-08-21T09:52:02.069Z,22.64
2022-08-21T09:54:29.358Z,22.05
2022-08-21T09:56:56.651Z,21.48
2022-08-21T09:59:23.954Z,21.51
2022-08-21T10:01:51.226Z,21.89
2022-08-21T10:04:18.517Z,21.71
2022-08-21T10:06:45.788Z,22.11
2022-08-21T10:09:18.822Z,22.70
2022-08-21T10:11:48.465Z,22.65
2022-08-21T10:14:15.757Z,21.79
2022-08-21T10:16:45.058Z,21.48
2022-08-21T10:19:12.342Z,21.82
2022-08-21T10:21:39.627Z,22.24
2022-08-21T10:24:09.069Z,21.81
2022-08-21T10:26:36.327Z,21.75
2022-08-21T10:29:03.607Z,21.50
2022-08-21T10:31:31.005Z,21.18
2022-08-21T10:33:58.280Z,21.20
2022-08-21T10:36:25.588Z,21.26
2022-08-21T10:39:07.399Z,21.25
2022-08-21T10:41:42.083Z,20.90
2022-08-21T10:44:09.381Z,20.90
2022-08-21T10:46:36.658Z,20.78
2022-08-21T10:49:03.946Z,21.21
2022-08-21T10:51:31.235Z,20.93
2022-08-21T10:53:58.499Z,21.29
2022-08-21T10:56:25.777Z,20.42
2022-08-21T10:58:53.484Z,20.19
2022-08-21T11:01:20.825Z,20.93
2022-08-21T11:03:48.119Z,21.46
2022-08-21T11:06:15.397Z,21.61
2022-08-21T11:08:43.206Z,21.63
2022-08-21T11:11:11.058Z,21.27
2022-08-21T11:13:43.632Z,21.03
2022-08-21T11:16:10.893Z,20.81
2022-08-21T11:18:38.164Z,20.96
2022-08-21T11:21:05.462Z,21.67
2022-08-21T11:23:32.735Z,21.43
2022-08-21T11:26:00.006Z,20.63
2022-08-21T11:28:27.298Z,20.48
2022-08-21T11:30:54.573Z,20.90
2022-08-21T11:33:21.839Z,20.75
2022-08-21T11:35:49.123Z,21.16
2022-08-21T11:38:16.401Z,21.74
2022-08-21T11:40:43.684Z,22.33
2022-08-21T11:43:11.005Z,23.10
2022-08-21T11:45:38.282Z,22.61
2022-08-21T11:48:05.574Z,22.24
2022-08-21T11:50:35.739Z,22.02
2022-08-21T11:53:03.558Z,21.94
2022-08-21T11:55:30.864Z,22.50
2022-08-21T11:57:58.149Z,21.81
2022-08-21T12:00:25.408Z,22.71
2022-08-21T12:02:52.687Z,22.68
2022-08-21T12:05:19.936Z,22.26
2022-08-21T12:07:47.201Z,22.28
2022-08-21T12:10:14.650Z,21.89
2022-08-21T12:12:41.922Z,22.21
2022-08-21T12:15:09.198Z,22.03
2022-08-21T12:17:36.514Z,21.65
2022-08-21T12:20:03.785Z,22.16
2022-08-21T12:22:31.067Z,22.18
2022-08-21T12:24:58.459Z,21.91
2022-08-21T12:27:25.747Z,22.18
2022-08-21T12:29:53.023Z,22.32
2022-08-21T12:32:20.309Z,22.05
2022-08-21T12:34:47.587Z,22.15
2022-08-21T12:37:14.870Z,22.37
2022-08-21T12:39:42.281Z,22.41
2022-08-21T12:42:09.586Z,22.83
2022-08-21T12:44:36.892Z,22.79
2022-08-21T12:47:04.212Z,22.57
2022-08-21T12:49:31.515Z,23.25
2022-08-21T12:51:58.785Z,23.78
2022-08-21T12:54:26.066Z,22.96
2022-08-21T12:56:53.351Z,22.93
2022-08-21T12:59:20.621Z,22.81
2022-08-21T13:01:47.947Z,23.05
2022-08-21T13:04:15.359Z,23.63
2022-08-21T13:06:42.615Z,23.86
2022-08-21T13:09:09.915Z,23.91
2022-08-21T13:11:37.211Z,23.77
2022-08-21T13:14:08.179Z,24.11
2022-08-21T13:16:37.526Z,23.84
2022-08-21T13:19:04.833Z,23.37
2022-08-21T13:21:32.110Z,23.40
2022-08-21T13:23:59.368Z,23.95
2022-08-21T13:26:26.655Z,23.43
2022-08-21T13:28:53.925Z,23.84
2022-08-21T13:31:22.161Z,23.74
2022-08-21T13:33:49.451Z,23.55
2022-08-21T13:36:16.736Z,23.14
2022-08-21T13:38:44.002Z,23.90
2022-08-21T13:41:11.274Z,23.46
2022-08-21T13:43:38.685Z,22.88
2022-08-21T13:46:05.961Z,23.64
2022-08-21T13:48:33.225Z,22.65
2022-08-21T13:51:00.515Z,22.94
2022-08-21T13:53:27.781Z,23.74
2022-08-21T13:55:59.946Z,23.66
2022-08-21T13:58:27.953Z,22.80
2022-08-21T14:00:55.233Z,23.12
2022-08-21T14:03:22.518Z,23.11
2022-08-21T14:05:49.908Z,23.53
2022-08-21T14:08:17.182Z,23.38
2022-08-21T14:10:44.473Z,23.48
2022-08-21T14:13:11.763Z,23.06
2022-08-21T14:15:39.037Z,23.04
2022-08-21T14:18:06.319Z,23.88
2022-08-21T14:20:33.610Z,23.70
2022-08-21T14:23:01.042Z,23.55
2022-08-21T14:25:28.347Z,23.65
2022-08-21T14:27:55.656Z,23.16
2022-08-21T14:30:22.945Z,23.82
2022-08-21T14:32:51.038Z,23.10
2022-08-21T14:35:18.324Z,23.85
2022-08-21T14:37:50.822Z,23.88
2022-08-21T14:40:18.295Z,23.64
2022-08-21T14:42:47.592Z,23.86
2022-08-21T14:45:14.864Z,24.31
2022-08-21T14:47:43.581Z,24.37
2022-08-21T14:50:10.835Z,23.27
2022-08-21T14:52:38.118Z,23.00
2022-08-21T14:55:05.405Z,23.03
2022-08-21T14:57:32.691Z,23.02
2022-08-21T15:00:01.884Z,23.77
2022-08-21T15:02:29.582Z,23.76
2022-08-21T15:04:56.867Z,23.90
2022-08-21T15:07:24.258Z,23.09
2022-08-21T15:09:51.527Z,22.84
2022-08-21T15:12:18.805Z,23.43
2022-08-21T15:14:46.109Z,23.57
2022-08-21T15:17:13.376Z,23.81
2022-08-21T15:19:40.653Z,23.38
2022-08-21T15:22:15.242Z,22.37
2022-08-21T15:27:12.909Z,22.74
2022-08-21T15:29:44.117Z,23.28
2022-08-21T15:32:11.491Z,22.68
2022-08-21T15:34:38.766Z,22.38
2022-08-21T15:37:06.030Z,22.24
2022-08-21T15:39:37.407Z,22.05
2022-08-21T15:42:10.884Z,22.31
2022-08-21T15:44:38.749Z,21.99
2022-08-21T15:47:07.351Z,22.42
2022-08-21T15:49:34.632Z,22.80
2022-08-21T15:52:01.934Z,23.12
2022-08-21T15:54:29.207Z,22.82
2022-08-21T15:56:56.485Z,22.65
2022-08-21T15:59:23.783Z,22.52
2022-08-21T16:01:51.171Z,22.48
2022-08-21T16:04:18.474Z,22.69
2022-08-21T16:06:55.353Z,22.63
2022-08-21T16:09:25.469Z,22.36
2022-08-21T16:11:52.769Z,22.95
2022-08-21T16:14:20.036Z,22.42
2022-08-21T16:16:47.380Z,22.63
2022-08-21T16:19:14.666Z,22.72
2022-08-21T16:21:41.969Z,22.74
2022-08-21T16:24:09.292Z,22.78
2022-08-21T16:26:36.565Z,22.65
2022-08-21T16:29:03.846Z,22.86
2022-08-21T16:31:31.149Z,22.99
2022-08-21T16:34:00.409Z,22.75
2022-08-21T16:36:27.725Z,23.18
2022-08-21T16:38:55.135Z,23.66
2022-08-21T16:41:22.416Z,23.47
2022-08-21T16:43:49.683Z,22.95
2022-08-21T16:46:16.974Z,22.88
2022-08-21T16:48:44.365Z,22.94
2022-08-21T16:51:11.640Z,22.88
2022-08-21T16:53:38.921Z,22.37
2022-08-21T16:56:06.228Z,22.14
2022-08-21T16:58:33.488Z,21.89
2022-08-21T17:01:00.835Z,22.21
2022-08-21T17:03:28.165Z,21.83
2022-08-21T17:05:55.456Z,21.75
2022-08-21T17:08:22.724Z,22.09
2022-08-21T17:10:52.103Z,22.17
2022-08-21T17:13:19.361Z,22.37
2022-08-21T17:15:47.744Z,22.51
2022-08-21T17:18:15.135Z,22.33
2022-08-21T17:20:42.409Z,22.32
2022-08-21T17:23:09.695Z,22.57
2022-08-21T17:25:36.980Z,22.11
2022-08-21T17:28:04.334Z,22.21
2022-08-21T17:30:31.626Z,22.27
2022-08-21T17:32:59.072Z,21.85
2022-08-21T17:35:26.487Z,21.84
2022-08-21T17:37:53.755Z,21.61
2022-08-21T17:40:22.124Z,21.31
2022-08-21T17:42:49.487Z,21.29
2022-08-21T17:45:16.781Z,21.04
2022-08-21T17:47:44.056Z,21.06
2022-08-21T17:50:11.458Z,20.87
2022-08-21T17:52:38.760Z,21.18
2022-08-21T17:55:06.038Z,20.95
2022-08-21T17:57:33.417Z,21.01
2022-08-21T18:00:00.686Z,21.03
2022-08-21T18:02:27.948Z,21.19
2022-08-21T18:04:55.251Z,21.19
2022-08-21T18:07:32.130Z,21.31
2022-08-21T18:10:00.201Z,21.32
2022-08-21T18:12:27.492Z,21.36
2022-08-21T18:14:54.759Z,21.57
2022-08-21T18:17:22.054Z,21.27
2022-08-21T18:19:49.544Z,21.29
2022-08-21T18:22:16.998Z,21.19
2022-08-21T18:24:44.267Z,21.28
2022-08-21T18:27:11.527Z,21.08
2022-08-21T18:29:47.003Z,21.09
2022-08-21T18:32:31.016Z,21.03
2022-08-21T18:34:59.224Z,20.87
2022-08-21T18:37:26.526Z,20.67
2022-08-21T18:39:53.869Z,20.47
2022-08-21T18:42:21.470Z,20.11
2022-08-21T18:44:56.112Z,19.69
2022-08-21T18:47:23.385Z,19.67
2022-08-21T18:49:50.656Z,19.80
2022-08-21T18:52:20.591Z,19.80
2022-08-21T18:54:47.951Z,19.54
2022-08-21T18:57:17.442Z,19.75
2022-08-21T18:59:45.526Z,19.95
2022-08-21T19:02:12.806Z,19.86
2022-08-21T19:04:44.948Z,19.88
2022-08-21T19:07:12.495Z,19.40
2022-08-21T19:09:39.807Z,19.60
2022-08-21T19:12:14.009Z,19.76
2022-08-21T19:14:41.918Z,19.35
2022-08-21T19:17:09.202Z,19.30
2022-08-21T19:19:39.471Z,19.47
2022-08-21T19:22:06.928Z,19.33
2022-08-21T19:24:38.475Z,19.22
2022-08-21T19:27:05.759Z,19.16
2022-08-21T19:29:35.165Z,19.13
2022-08-21T19:32:02.670Z,19.29
2022-08-21T19:34:30.047Z,19.34
2022-08-21T19:36:57.307Z,19.62
2022-08-21T19:39:24.587Z,19.64
2022-08-21T19:41:52.018Z,19.68
2022-08-21T19:47:06.530Z,19.62
2022-08-21T19:49:34.077Z,19.75
2022-08-21T19:52:01.372Z,19.74
2022-08-21T19:54:28.756Z,19.54
2022-08-21T19:56:57.035Z,19.43
2022-08-21T20:02:13.982Z,19.74
2022-08-21T20:04:53.179Z,19.79
2022-08-21T20:07:26.273Z,19.67
2022-08-21T20:09:54.285Z,19.56
2022-08-21T20:12:22.972Z,19.44
2022-08-21T20:14:50.231Z,19.22
2022-08-21T20:17:17.547Z,19.17
2022-08-21T20:19:44.855Z,19.28
2022-08-21T20:22:12.130Z,19.29
2022-08-21T20:24:39.422Z,19.50
2022-08-21T20:27:10.292Z,19.62
2022-08-21T20:29:39.304Z,19.34
2022-08-21T20:32:06.764Z,19.64
2022-08-21T20:34:34.054Z,19.89
2022-08-21T20:37:01.363Z,19.94
2022-08-21T20:39:28.628Z,19.87
2022-08-21T20:41:55.895Z,19.73
2022-08-21T20:44:27.424Z,19.52
2022-08-21T20:46:54.752Z,18.99
2022-08-21T20:49:22.049Z,18.59
2022-08-21T20:51:49.319Z,18.55
2022-08-21T20:54:17.127Z,18.95
2022-08-21T20:56:44.396Z,18.43
2022-08-21T20:59:11.693Z,18.44
2022-08-21T21:01:38.959Z,18.54
2022-08-21T21:04:09.877Z,18.63
2022-08-21T21:06:37.388Z,19.16
2022-08-21T21:09:04.663Z,18.88
2022-08-21T21:11:32.046Z,18.60
2022-08-21T21:14:01.062Z,18.79
2022-08-21T21:16:28.369Z,18.91
2022-08-21T21:18:55.642Z,18.43
2022-08-21T21:21:26.170Z,18.76
2022-08-21T21:23:54.976Z,18.70
2022-08-21T21:26:23.153Z,18.65
2022-08-21T21:28:56.468Z,18.75
2022-08-21T21:31:23.830Z,18.84
2022-08-21T21:33:51.143Z,18.44
2022-08-21T21:36:18.445Z,18.13
2022-08-21T21:38:51.996Z,18.21
2022-08-21T21:41:19.559Z,18.50
2022-08-21T21:43:47.357Z,18.54
2022-08-21T21:46:14.621Z,18.61
2022-08-21T21:48:42.251Z,18.70
2022-08-21T21:51:12.101Z,18.64
2022-08-21T21:53:40.145Z,18.31
2022-08-21T21:56:07.563Z,18.47
2022-08-21T21:58:34.827Z,18.46
2022-08-21T22:01:02.121Z,18.41
2022-08-21T22:03:29.503Z,18.17
2022-08-21T22:05:57.310Z,18.14
2022-08-21T22:08:30.075Z,18.03
2022-08-21T22:10:57.602Z,18.12
2022-08-21T22:13:26.671Z,18.75
2022-08-21T22:16:13.271Z,18.80
2022-08-21T22:18:44.970Z,18.09
2022-08-21T22:21:12.576Z,17.86
2022-08-21T22:23:39.886Z,18.05
2022-08-21T22:26:07.404Z,18.47
2022-08-21T22:28:34.739Z,18.15
2022-08-21T22:31:02.077Z,18.16
2022-08-21T22:33:35.504Z,17.81
2022-08-21T22:36:03.653Z,18.09
2022-08-21T22:38:30.919Z,17.89
2022-08-21T22:40:58.203Z,17.68
2022-08-21T22:43:25.567Z,17.46
2022-08-21T22:45:54.786Z,17.61
2022-08-21T22:48:22.655Z,17.42
2022-08-21T22:50:50.150Z,17.54
2022-08-21T22:53:17.536Z,17.41
2022-08-21T22:55:45.095Z,17.55
2022-08-21T22:58:12.400Z,17.38
2022-08-21T23:00:39.691Z,17.77
2022-08-21T23:03:16.473Z,17.57
2022-08-21T23:05:44.807Z,17.45
2022-08-21T23:08:12.074Z,17.42
2022-08-21T23:10:40.215Z,17.31
2022-08-21T23:13:09.194Z,17.46
2022-08-21T23:15:37.173Z,17.62
2022-08-21T23:18:04.450Z,17.54
2022-08-21T23:20:31.745Z,17.56
2022-08-21T23:22:59.191Z,17.64
2022-08-21T23:25:26.604Z,17.64
2022-08-21T23:27:53.859Z,17.63
2022-08-21T23:30:21.147Z,17.50
2022-08-21T23:32:57.075Z,17.57
2022-08-21T23:35:27.702Z,17.65
2022-08-21T23:37:55.117Z,17.58
2022-08-21T23:40:22.453Z,17.40
2022-08-21T23:42:55.369Z,17.58
2022-08-21T23:48:09.890Z,17.44
2022-08-21T23:50:38.266Z,17.66
2022-08-21T23:53:09.031Z,17.49
2022-08-21T23:55:36.689Z,17.59
2022-08-21T23:58:04.065Z,17.65
